Time;durP1;ratioP1;P1;durP2;ratioP2;P2;SDS_P1;SDS_P2;PMS_P1;PMS_P2;Temp;Humidity;BMP_temperature;BMP_pressure;BME280_temperature;BME280_humidity;BME280_pressure;Samples;Min_cycle;Max_cycle;Signal;HPM_P1;HPM_P2
2022/10/21 00:02:05;;;;;;;0.00;0.00;;;16.90;99.90;;;;;;6227479;28;20057;-82
2022/10/21 00:05:07;;;;;;;0.00;0.00;;;16.90;99.90;;;;;;6227188;28;20046;-82
2022/10/21 00:08:09;;;;;;;0.00;0.00;;;17.00;99.90;;;;;;6226348;28;20042;-82
2022/10/21 00:11:11;;;;;;;0.00;0.00;;;17.00;99.90;;;;;;6227021;28;20050;-83
2022/10/21 00:14:14;;;;;;;0.00;0.00;;;17.10;99.90;;;;;;6226900;28;20057;-83
2022/10/21 00:17:15;;;;;;;0.00;0.00;;;17.10;99.90;;;;;;6226423;28;20060;-83
2022/10/21 00:20:18;;;;;;;0.00;0.00;;;17.20;99.90;;;;;;6226354;28;20056;-83
2022/10/21 00:23:19;;;;;;;0.50;0.50;;;17.30;99.90;;;;;;6226251;28;20065;-83
2022/10/21 00:26:21;;;;;;;0.00;0.00;;;17.20;99.90;;;;;;6226832;28;20045;-83
2022/10/21 00:29:24;;;;;;;0.00;0.00;;;17.20;99.90;;;;;;6225575;28;20057;-83
2022/10/21 00:32:26;;;;;;;0.00;0.00;;;17.10;99.90;;;;;;6226467;28;20167;-83
2022/10/21 00:35:27;;;;;;;0.00;0.00;;;17.10;99.90;;;;;;6224138;28;20056;-83
2022/10/21 00:38:30;;;;;;;0.00;0.00;;;17.10;99.90;;;;;;6212755;28;20526;-83
2022/10/21 00:41:31;;;;;;;0.00;0.00;;;17.10;99.90;;;;;;6200928;28;20380;-84
2022/10/21 00:44:37;;;;;;;0.00;0.00;;;17.20;99.90;;;;;;6201802;28;20507;-83
2022/10/21 00:47:44;;;;;;;0.00;0.00;;;17.10;99.90;;;;;;6201255;28;20065;-82
2022/10/21 00:50:52;;;;;;;0.00;0.00;;;17.10;99.90;;;;;;6201929;28;20054;-84
2022/10/21 00:53:53;;;;;;;;;;;17.10;99.90;;;;;;6201248;28;20507;-83
2022/10/21 00:56:57;;;;;;;0.00;0.00;;;17.00;99.90;;;;;;6200652;28;19922;-84
2022/10/21 01:00:02;;;;;;;0.00;0.00;;;17.10;99.90;;;;;;6200474;28;20046;-84
2022/10/21 01:03:04;;;;;;;0.00;0.00;;;17.10;99.90;;;;;;6201562;28;20050;-83
2022/10/21 01:06:08;;;;;;;0.00;0.00;;;17.10;99.90;;;;;;6201140;28;20197;-83
2022/10/21 01:09:10;;;;;;;0.00;0.00;;;17.10;99.90;;;;;;6200339;28;20057;-83
2022/10/21 01:12:22;;;;;;;0.00;0.00;;;17.10;99.90;;;;;;6200788;28;20049;-82
2022/10/21 01:15:33;;;;;;;0.00;0.00;;;17.10;99.90;;;;;;6201226;28;20050;-84
2022/10/21 01:18:45;;;;;;;0.00;0.00;;;17.10;99.90;;;;;;6201475;28;20069;-83
2022/10/21 01:21:53;;;;;;;0.00;0.00;;;17.20;99.90;;;;;;6199288;28;20038;-84
2022/10/21 01:25:13;;;;;;;0.00;0.00;;;17.00;99.90;;;;;;6198667;28;20058;-84
2022/10/21 01:28:26;;;;;;;0.00;0.00;;;16.90;99.90;;;;;;6199792;28;20057;-83
2022/10/21 01:31:35;;;;;;;0.00;0.00;;;16.70;99.90;;;;;;6198801;28;20051;-83
2022/10/21 01:34:42;;;;;;;0.00;0.00;;;16.60;99.90;;;;;;6198756;28;20050;-83
2022/10/21 01:37:50;;;;;;;0.00;0.00;;;16.50;99.90;;;;;;6199716;28;20054;-83
2022/10/21 01:40:58;;;;;;;0.00;0.00;;;16.60;99.90;;;;;;6201663;28;20058;-84
2022/10/21 01:44:05;;;;;;;0.00;0.00;;;16.60;99.90;;;;;;6201682;28;20530;-83
2022/10/21 01:47:15;;;;;;;0.00;0.00;;;16.60;99.90;;;;;;6199025;28;20051;-84
2022/10/21 01:50:19;;;;;;;0.00;0.00;;;16.50;99.90;;;;;;6198887;28;20508;-84
2022/10/21 01:53:26;;;;;;;0.00;0.00;;;16.60;99.90;;;;;;6183437;28;20051;-83
2022/10/21 01:56:29;;;;;;;0.00;0.00;;;16.60;99.90;;;;;;6176547;28;20051;-82
2022/10/21 01:59:32;;;;;;;0.00;0.00;;;16.50;99.90;;;;;;6177757;28;20428;-83
2022/10/21 02:02:40;;;;;;;0.00;0.00;;;16.50;99.90;;;;;;6180883;28;20047;-84
2022/10/21 02:05:42;;;;;;;0.00;0.00;;;16.40;99.90;;;;;;6184168;28;20055;-83
2022/10/21 02:08:44;;;;;;;0.00;0.00;;;16.50;99.90;;;;;;6187632;28;20435;-84
2022/10/21 02:11:50;;;;;;;0.00;0.00;;;16.60;99.90;;;;;;6188959;28;20053;-83
2022/10/21 02:14:55;;;;;;;0.00;0.00;;;16.60;99.90;;;;;;6192150;28;20058;-83
2022/10/21 02:18:02;;;;;;;0.00;0.00;;;16.60;99.90;;;;;;6186388;28;20059;-83
2022/10/21 02:21:08;;;;;;;0.00;0.00;;;16.60;99.90;;;;;;6182627;28;20046;-84
2022/10/21 02:24:15;;;;;;;0.00;0.00;;;16.60;99.90;;;;;;6184396;28;20050;-84
2022/10/21 02:27:17;;;;;;;0.00;0.00;;;16.60;99.90;;;;;;6183764;28;20066;-84
2022/10/21 02:30:20;;;;;;;0.00;0.00;;;16.70;99.90;;;;;;6183799;28;20066;-83
2022/10/21 02:33:32;;;;;;;0.00;0.00;;;16.60;99.90;;;;;;6184072;28;20047;-84
2022/10/21 02:36:44;;;;;;;0.00;0.00;;;16.60;99.90;;;;;;6182735;28;20051;-84
2022/10/21 02:39:51;;;;;;;0.00;0.00;;;16.50;99.90;;;;;;6181616;28;20055;-84
2022/10/21 02:42:57;;;;;;;0.00;0.00;;;16.50;99.90;;;;;;6182279;28;20050;-84
2022/10/21 02:46:01;;;;;;;0.00;0.00;;;16.50;99.90;;;;;;6182070;28;20053;-84
2022/10/21 02:49:04;;;;;;;0.00;0.00;;;16.50;99.90;;;;;;6181281;28;20051;-84
2022/10/21 02:52:06;;;;;;;0.00;0.00;;;16.50;99.90;;;;;;6181759;28;20623;-84
2022/10/21 02:55:09;;;;;;;0.00;0.00;;;16.60;99.90;;;;;;6183407;28;20515;-84
2022/10/21 02:58:11;;;;;;;0.00;0.00;;;16.70;99.90;;;;;;6181266;28;20051;-84
2022/10/21 03:01:13;;;;;;;0.00;0.00;;;16.70;99.90;;;;;;6182508;28;20050;-83
2022/10/21 03:04:16;;;;;;;0.00;0.00;;;16.70;99.90;;;;;;6183193;28;20058;-84
2022/10/21 03:07:17;;;;;;;0.00;0.00;;;16.70;99.90;;;;;;6182519;28;20065;-84
2022/10/21 03:10:19;;;;;;;0.00;0.00;;;16.70;99.90;;;;;;6183368;28;20062;-84
2022/10/21 03:13:21;;;;;;;0.00;0.00;;;16.70;99.90;;;;;;6181346;28;20053;-83
2022/10/21 03:16:22;;;;;;;0.00;0.00;;;16.70;99.90;;;;;;6182227;28;20051;-84
2022/10/21 03:19:26;;;;;;;0.00;0.00;;;16.60;99.90;;;;;;6180759;28;20050;-84
2022/10/21 03:22:27;;;;;;;0.00;0.00;;;16.60;99.90;;;;;;6179466;28;20069;-84
2022/10/21 03:25:29;;;;;;;0.00;0.00;;;16.60;99.90;;;;;;6180589;28;20531;-83
2022/10/21 03:28:30;;;;;;;0.00;0.00;;;16.50;99.90;;;;;;6178733;28;20050;-84
2022/10/21 03:31:32;;;;;;;0.00;0.00;;;16.60;99.90;;;;;;6175857;28;20054;-83
2022/10/21 03:34:35;;;;;;;0.00;0.00;;;16.60;99.90;;;;;;6176222;28;20055;-83
2022/10/21 03:37:37;;;;;;;0.00;0.00;;;16.60;99.90;;;;;;6175062;28;20512;-84
2022/10/21 03:40:38;;;;;;;0.00;0.00;;;16.60;99.90;;;;;;6175253;28;20424;-84
2022/10/21 03:43:40;;;;;;;0.00;0.00;;;16.70;99.90;;;;;;6176063;28;20066;-84
2022/10/21 03:46:42;;;;;;;0.00;0.00;;;16.60;99.90;;;;;;6179422;28;20062;-83
2022/10/21 03:49:45;;;;;;;0.00;0.00;;;16.70;99.90;;;;;;6177962;28;20522;-83
2022/10/21 03:52:46;;;;;;;0.00;0.00;;;16.70;99.90;;;;;;6177026;28;20719;-85
2022/10/21 03:55:50;;;;;;;0.00;0.00;;;16.80;99.90;;;;;;6179018;28;20047;-84
2022/10/21 03:58:51;;;;;;;0.00;0.00;;;16.80;99.90;;;;;;6178418;28;20612;-84
2022/10/21 04:01:53;;;;;;;0.00;0.00;;;16.90;99.90;;;;;;6177971;28;20043;-84
2022/10/21 04:04:56;;;;;;;0.00;0.00;;;17.00;99.90;;;;;;6177887;28;20062;-83
2022/10/21 04:07:58;;;;;;;0.00;0.00;;;17.00;99.90;;;;;;6177113;28;20046;-84
2022/10/21 04:11:00;;;;;;;0.00;0.00;;;17.10;99.90;;;;;;6176072;28;20515;-84
2022/10/21 04:14:01;;;;;;;0.00;0.00;;;17.10;99.90;;;;;;6175374;28;20054;-84
2022/10/21 04:17:03;;;;;;;0.00;0.00;;;17.10;99.90;;;;;;6177562;28;20058;-83
2022/10/21 04:20:08;;;;;;;0.00;0.00;;;17.00;99.90;;;;;;6175444;28;20416;-83
2022/10/21 04:23:09;;;;;;;0.00;0.00;;;17.10;99.90;;;;;;6177392;28;20054;-83
2022/10/21 04:26:11;;;;;;;0.00;0.00;;;17.10;99.90;;;;;;6177443;28;20055;-84
2022/10/21 04:29:13;;;;;;;0.00;0.00;;;17.00;99.90;;;;;;6176394;28;20054;-83
2022/10/21 04:32:14;;;;;;;0.00;0.00;;;17.10;99.90;;;;;;6175983;28;20050;-84
2022/10/21 04:35:18;;;;;;;0.00;0.00;;;17.00;99.90;;;;;;6176767;28;20054;-84
2022/10/21 04:38:20;;;;;;;0.65;0.55;;;17.10;99.90;;;;;;6177717;28;20051;-83
2022/10/21 04:41:21;;;;;;;0.00;0.00;;;17.00;99.90;;;;;;6177246;28;20527;-84
2022/10/21 04:44:23;;;;;;;0.00;0.00;;;17.00;99.90;;;;;;6177513;28;20046;-84
2022/10/21 04:47:25;;;;;;;0.00;0.00;;;16.90;99.90;;;;;;6174652;28;20504;-83
2022/10/21 04:50:28;;;;;;;0.00;0.00;;;16.90;99.90;;;;;;6178110;28;20077;-84
2022/10/21 04:53:29;;;;;;;0.00;0.00;;;16.80;99.90;;;;;;6178096;28;20047;-84
2022/10/21 04:56:31;;;;;;;0.00;0.00;;;16.70;99.90;;;;;;6177904;28;20070;-85
2022/10/21 04:59:33;;;;;;;0.00;0.00;;;16.70;99.90;;;;;;6177970;28;20050;-84
2022/10/21 05:02:35;;;;;;;0.00;0.00;;;16.70;99.90;;;;;;6177707;28;20050;-84
2022/10/21 05:05:38;;;;;;;0.00;0.00;;;16.70;99.90;;;;;;6178277;28;20043;-83
2022/10/21 05:08:39;;;;;;;0.00;0.00;;;16.70;99.90;;;;;;6175645;28;20062;-84
2022/10/21 05:11:41;;;;;;;0.00;0.00;;;16.70;99.90;;;;;;6175323;28;20057;-84
2022/10/21 05:14:43;;;;;;;0.00;0.00;;;16.70;99.90;;;;;;6176486;28;20524;-84
2022/10/21 05:17:45;;;;;;;0.00;0.00;;;16.60;99.90;;;;;;6175455;28;20047;-83
2022/10/21 05:20:51;;;;;;;0.00;0.00;;;16.60;99.90;;;;;;6175047;28;20051;-83
2022/10/21 05:23:53;;;;;;;0.00;0.00;;;16.50;99.90;;;;;;6174592;28;20057;-82
2022/10/21 05:26:55;;;;;;;0.00;0.00;;;16.40;99.90;;;;;;6177520;28;20082;-83
2022/10/21 05:29:57;;;;;;;0.00;0.00;;;16.40;99.90;;;;;;6174257;28;20047;-83
2022/10/21 05:32:58;;;;;;;0.00;0.00;;;16.40;99.90;;;;;;6173548;28;20050;-83
2022/10/21 05:36:06;;;;;;;0.00;0.00;;;16.30;99.90;;;;;;6177271;28;20421;-83
2022/10/21 05:39:10;;;;;;;0.00;0.00;;;16.30;99.90;;;;;;6180238;28;20607;-83
2022/10/21 05:42:12;;;;;;;0.00;0.00;;;16.30;99.90;;;;;;6178459;28;20058;-82
2022/10/21 05:45:14;;;;;;;0.00;0.00;;;16.30;99.90;;;;;;6179924;28;20070;-82
2022/10/21 05:48:17;;;;;;;0.00;0.00;;;16.20;99.90;;;;;;6184407;28;20051;-83
2022/10/21 05:51:24;;;;;;;0.00;0.00;;;16.10;99.90;;;;;;6205800;28;20154;-82
2022/10/21 05:54:26;;;;;;;0.00;0.00;;;16.10;99.90;;;;;;6208226;28;20046;-83
2022/10/21 05:57:27;;;;;;;0.00;0.00;;;16.00;99.90;;;;;;6209700;28;20057;-83
2022/10/21 06:00:29;;;;;;;0.00;0.00;;;16.00;99.90;;;;;;6206966;28;20058;-83
2022/10/21 06:03:33;;;;;;;0.00;0.00;;;16.10;99.90;;;;;;6208958;28;20046;-82
2022/10/21 06:06:36;;;;;;;0.00;0.00;;;16.00;99.90;;;;;;6207256;28;20054;-82
2022/10/21 06:09:38;;;;;;;0.00;0.00;;;15.90;99.90;;;;;;6208595;28;20057;-82
2022/10/21 06:12:40;;;;;;;0.00;0.00;;;15.90;99.90;;;;;;6211482;28;20050;-83
2022/10/21 06:15:41;;;;;;;0.00;0.00;;;15.90;99.90;;;;;;6207704;28;20057;-82
2022/10/21 06:18:43;;;;;;;0.00;0.00;;;15.90;99.90;;;;;;6202486;28;20058;-83
2022/10/21 06:21:47;;;;;;;0.00;0.00;;;15.90;99.90;;;;;;6206093;28;20049;-83
2022/10/21 06:24:49;;;;;;;0.00;0.00;;;16.00;99.90;;;;;;6205303;28;20057;-82
2022/10/21 06:27:52;;;;;;;0.00;0.00;;;16.10;99.90;;;;;;6203756;28;20050;-83
2022/10/21 06:30:54;;;;;;;0.00;0.00;;;16.20;99.90;;;;;;6206545;28;20105;-83
2022/10/21 06:33:56;;;;;;;0.00;0.00;;;16.30;99.90;;;;;;6206117;28;20046;-83
2022/10/21 06:36:59;;;;;;;0.00;0.00;;;16.30;99.90;;;;;;6206438;28;20054;-83
2022/10/21 06:40:01;;;;;;;0.00;0.00;;;16.30;99.90;;;;;;6204269;28;20526;-83
2022/10/21 06:43:02;;;;;;;0.00;0.00;;;16.30;99.90;;;;;;6204890;28;20073;-82
2022/10/21 06:46:07;;;;;;;0.00;0.00;;;16.40;99.90;;;;;;6203222;28;20050;-82
2022/10/21 06:49:08;;;;;;;0.00;0.00;;;16.50;99.90;;;;;;6191691;28;20073;-83
2022/10/21 06:52:11;;;;;;;0.00;0.00;;;16.50;99.90;;;;;;6201419;28;20045;-83
2022/10/21 06:55:13;;;;;;;0.00;0.00;;;16.50;99.90;;;;;;6220160;28;20455;-81
2022/10/21 06:58:15;;;;;;;0.00;0.00;;;16.50;99.90;;;;;;6228636;28;20053;-82
2022/10/21 07:01:19;;;;;;;0.00;0.00;;;16.40;99.90;;;;;;6204938;28;20046;-82
2022/10/21 07:04:21;;;;;;;0.00;0.00;;;16.60;99.90;;;;;;6202550;28;20073;-82
2022/10/21 07:07:24;;;;;;;0.00;0.00;;;16.60;99.90;;;;;;6203557;28;20415;-82
2022/10/21 07:10:26;;;;;;;0.00;0.00;;;16.70;99.90;;;;;;6205542;28;20054;-83
2022/10/21 07:13:27;;;;;;;0.00;0.00;;;16.70;99.90;;;;;;6204411;28;20043;-82
2022/10/21 07:16:33;;;;;;;0.00;0.00;;;16.80;99.90;;;;;;6204594;28;20420;-82
2022/10/21 07:19:36;;;;;;;0.00;0.00;;;16.80;99.90;;;;;;6203953;28;20420;-83
2022/10/21 07:22:39;;;;;;;0.00;0.00;;;16.70;99.90;;;;;;6213193;28;20051;-83
2022/10/21 07:25:41;;;;;;;0.00;0.00;;;16.70;99.90;;;;;;6228428;28;20056;-83
2022/10/21 07:28:46;;;;;;;0.00;0.00;;;16.70;99.90;;;;;;6212437;28;20050;-82
2022/10/21 07:31:47;;;;;;;0.00;0.00;;;16.70;99.90;;;;;;6204595;28;20050;-83
2022/10/21 07:34:49;;;;;;;0.00;0.00;;;16.70;99.90;;;;;;6204069;28;20058;-82
2022/10/21 07:37:52;;;;;;;0.00;0.00;;;16.70;99.90;;;;;;6203235;28;20043;-82
2022/10/21 07:40:54;;;;;;;0.00;0.00;;;16.80;99.90;;;;;;6202328;28;20065;-83
2022/10/21 07:43:57;;;;;;;0.00;0.00;;;16.70;99.90;;;;;;6203756;28;20064;-83
2022/10/21 07:46:58;;;;;;;0.00;0.00;;;16.70;99.90;;;;;;6202675;28;20416;-82
2022/10/21 07:50:00;;;;;;;0.00;0.00;;;16.80;99.90;;;;;;6202479;28;20050;-83
2022/10/21 07:53:03;;;;;;;0.00;0.00;;;16.80;99.90;;;;;;6213218;28;20042;-84
2022/10/21 07:56:07;;;;;;;0.00;0.00;;;17.00;99.90;;;;;;6228097;28;20052;-82
2022/10/21 07:59:10;;;;;;;0.00;0.00;;;17.00;99.90;;;;;;6226808;28;20060;-82
2022/10/21 08:02:14;;;;;;;0.10;0.10;;;17.00;99.90;;;;;;6227952;28;20041;-81
2022/10/21 08:05:16;;;;;;;0.32;0.32;;;17.00;99.90;;;;;;6207120;28;20053;-82
2022/10/21 08:08:20;;;;;;;0.00;0.00;;;17.00;99.90;;;;;;6203663;28;20050;-82
2022/10/21 08:11:23;;;;;;;0.00;0.00;;;17.00;99.90;;;;;;6204341;28;20052;-82
2022/10/21 08:14:25;;;;;;;0.00;0.00;;;17.00;99.90;;;;;;6205092;28;20057;-82
2022/10/21 08:17:27;;;;;;;0.00;0.00;;;17.10;99.90;;;;;;6202595;28;20448;-83
2022/10/21 08:20:28;;;;;;;0.00;0.00;;;17.10;99.90;;;;;;6205116;28;20512;-82
2022/10/21 08:23:31;;;;;;;0.00;0.00;;;17.10;99.90;;;;;;6217601;28;20046;-82
2022/10/21 08:26:33;;;;;;;0.00;0.00;;;17.10;99.90;;;;;;6226975;28;20046;-84
2022/10/21 08:29:35;;;;;;;0.00;0.00;;;17.00;99.90;;;;;;6224451;28;20053;-83
2022/10/21 08:32:36;;;;;;;0.00;0.00;;;17.00;99.90;;;;;;6227547;28;20042;-83
2022/10/21 08:35:39;;;;;;;0.00;0.00;;;17.00;99.90;;;;;;6224360;28;20046;-84
2022/10/21 08:38:42;;;;;;;0.00;0.00;;;17.00;99.90;;;;;;6224007;28;20050;-84
2022/10/21 08:41:57;;;;;;;0.00;0.00;;;17.00;99.90;;;;;;6212807;28;20057;-83
2022/10/21 08:45:05;;;;;;;0.00;0.00;;;17.00;99.90;;;;;;6202336;28;20527;-84
2022/10/21 08:48:14;;;;;;;0.00;0.00;;;17.00;99.90;;;;;;6200328;28;20047;-83
2022/10/21 08:51:26;;;;;;;0.00;0.00;;;17.10;99.90;;;;;;6204554;28;20045;-84
2022/10/21 08:54:38;;;;;;;0.00;0.00;;;17.20;99.90;;;;;;6216713;28;20061;-84
2022/10/21 08:57:40;;;;;;;0.00;0.00;;;17.20;99.90;;;;;;6221989;28;20054;-83
2022/10/21 09:00:47;;;;;;;0.00;0.00;;;17.30;99.90;;;;;;6224378;28;20049;-83
2022/10/21 09:03:55;;;;;;;0.00;0.00;;;17.30;99.90;;;;;;6213734;28;20496;-83
2022/10/21 09:07:05;;;;;;;0.00;0.00;;;17.20;99.90;;;;;;6204907;28;20500;-84
2022/10/21 09:10:17;;;;;;;0.00;0.00;;;17.20;99.90;;;;;;6203200;28;20054;-83
2022/10/21 09:13:28;;;;;;;0.00;0.00;;;17.20;99.90;;;;;;6206024;28;20049;-83
2022/10/21 09:16:39;;;;;;;0.00;0.00;;;17.30;99.90;;;;;;6205226;28;20050;-83
2022/10/21 09:19:51;;;;;;;0.00;0.00;;;17.50;99.90;;;;;;6205009;28;20050;-83
2022/10/21 09:23:02;;;;;;;0.00;0.00;;;17.60;99.90;;;;;;6209865;28;20058;-84
2022/10/21 09:26:17;;;;;;;0.00;0.00;;;17.70;99.90;;;;;;6222737;28;20173;-84
2022/10/21 09:29:28;;;;;;;0.00;0.00;;;17.80;99.90;;;;;;6228348;28;20434;-84
2022/10/21 09:32:34;;;;;;;0.00;0.00;;;18.00;99.90;;;;;;6226481;28;20050;-84
2022/10/21 09:35:40;;;;;;;0.00;0.00;;;18.00;99.90;;;;;;6222772;28;20046;-84
2022/10/21 09:38:46;;;;;;;1.10;0.80;;;18.00;99.90;;;;;;6222653;28;20525;-84
2022/10/21 09:41:52;;;;;;;0.45;0.45;;;18.00;99.90;;;;;;6224152;28;20042;-84
2022/10/21 09:44:54;;;;;;;0.00;0.00;;;18.00;99.90;;;;;;6224102;28;20050;-84
2022/10/21 09:47:58;;;;;;;0.00;0.00;;;17.90;99.90;;;;;;6222760;28;20046;-84
2022/10/21 09:51:05;;;;;;;0.00;0.00;;;18.00;99.90;;;;;;6220370;28;20500;-85
2022/10/21 09:54:10;;;;;;;1.35;0.55;;;17.90;99.90;;;;;;6214253;28;20515;-84
2022/10/21 09:57:17;;;;;;;0.00;0.00;;;17.90;99.90;;;;;;6222543;28;20077;-84
2022/10/21 10:00:19;;;;;;;0.00;0.00;;;18.00;99.90;;;;;;6222803;28;20149;-84
2022/10/21 10:03:33;;;;;;;0.00;0.00;;;18.00;99.90;;;;;;6222598;28;20056;-84
2022/10/21 10:06:36;;;;;;;0.00;0.00;;;18.00;99.90;;;;;;6223829;28;20120;-84
2022/10/21 10:09:45;;;;;;;0.00;0.00;;;18.10;99.90;;;;;;6222490;28;20046;-84
2022/10/21 10:12:55;;;;;;;0.00;0.00;;;18.20;99.90;;;;;;6222383;28;20049;-84
2022/10/21 10:16:13;;;;;;;0.00;0.00;;;18.30;99.90;;;;;;6222522;28;20458;-84
2022/10/21 10:19:17;;;;;;;0.00;0.00;;;18.30;99.90;;;;;;6222768;28;20061;-84
2022/10/21 10:22:19;;;;;;;0.00;0.00;;;18.40;99.90;;;;;;6221129;28;20306;-84
2022/10/21 10:25:23;;;;;;;0.00;0.00;;;18.50;99.90;;;;;;6224667;28;20053;-84
2022/10/21 10:28:26;;;;;;;0.00;0.00;;;18.50;99.90;;;;;;6228117;28;20523;-84
2022/10/21 10:31:32;;;;;;;0.00;0.00;;;18.60;99.90;;;;;;6231026;28;20049;-85
2022/10/21 10:34:36;;;;;;;0.00;0.00;;;18.60;99.90;;;;;;6230912;28;20057;-86
2022/10/21 10:37:38;;;;;;;0.00;0.00;;;18.70;99.90;;;;;;6226886;28;20045;-83
2022/10/21 10:40:43;;;;;;;0.00;0.00;;;18.80;99.90;;;;;;6226447;28;20123;-83
2022/10/21 10:43:48;;;;;;;0.00;0.00;;;18.90;99.90;;;;;;6226102;28;20415;-83
2022/10/21 10:46:54;;;;;;;0.00;0.00;;;19.10;99.90;;;;;;6226266;28;20423;-83
2022/10/21 10:49:56;;;;;;;0.00;0.00;;;19.00;99.90;;;;;;6228240;28;20057;-83
2022/10/21 10:53:24;;;;;;;0.00;0.00;;;19.10;99.90;;;;;;6216464;28;20527;-83
2022/10/21 10:56:29;;;;;;;0.00;0.00;;;19.10;99.90;;;;;;6201117;28;20054;-83
2022/10/21 10:59:39;;;;;;;0.00;0.00;;;19.20;99.90;;;;;;6200893;28;20054;-83
2022/10/21 11:02:48;;;;;;;0.00;0.00;;;19.20;99.90;;;;;;6202442;28;20054;-83
2022/10/21 11:05:53;;;;;;;0.00;0.00;;;19.20;99.90;;;;;;6200914;28;20094;-83
2022/10/21 11:08:58;;;;;;;0.00;0.00;;;19.40;99.90;;;;;;6200558;28;20050;-84
2022/10/21 11:12:05;;;;;;;0.00;0.00;;;19.30;99.90;;;;;;6201357;28;20054;-84
2022/10/21 11:15:14;;;;;;;0.00;0.00;;;19.40;99.90;;;;;;6202464;28;20062;-84
2022/10/21 11:18:24;;;;;;;0.00;0.00;;;19.40;99.90;;;;;;6201511;28;20062;-84
2022/10/21 11:21:38;;;;;;;0.13;0.13;;;19.50;99.90;;;;;;6205727;28;20660;-84
2022/10/21 11:24:55;;;;;;;0.00;0.00;;;19.60;99.90;;;;;;6216829;28;20530;-83
2022/10/21 11:28:16;;;;;;;0.32;0.20;;;19.70;99.90;;;;;;6224888;28;20041;-83
2022/10/21 11:31:26;;;;;;;0.45;0.45;;;19.80;99.90;;;;;;6225661;28;20050;-83
2022/10/21 11:34:36;;;;;;;2.42;0.57;;;20.00;99.90;;;;;;6224635;28;20476;-85
2022/10/21 11:37:49;;;;;;;5.47;1.35;;;20.00;99.90;;;;;;6224457;28;20054;-83
2022/10/21 11:40:57;;;;;;;2.45;0.77;;;20.00;99.90;;;;;;6224868;28;20049;-83
2022/10/21 11:44:10;;;;;;;3.05;1.10;;;20.10;99.90;;;;;;6224917;28;20053;-83
2022/10/21 11:47:20;;;;;;;6.15;1.25;;;20.30;99.90;;;;;;6225971;28;20049;-83
2022/10/21 11:50:27;;;;;;;5.80;1.05;;;20.30;99.90;;;;;;6224883;28;20068;-84
2022/10/21 11:53:42;;;;;;;4.23;1.03;;;20.40;99.90;;;;;;6210688;28;20042;-83
2022/10/21 11:56:49;;;;;;;5.80;0.75;;;20.60;99.90;;;;;;6224704;28;20054;-83
2022/10/21 12:00:03;;;;;;;5.50;0.55;;;20.70;99.90;;;;;;6224538;28;20054;-83
2022/10/21 12:03:26;;;;;;;7.63;1.08;;;20.60;99.90;;;;;;6224975;28;20057;-84
2022/10/21 12:06:34;;;;;;;1.88;0.60;;;20.60;99.90;;;;;;6224572;28;20052;-83
2022/10/21 12:09:41;;;;;;;2.33;0.80;;;20.60;99.90;;;;;;6223686;28;20081;-85
2022/10/21 12:12:46;;;;;;;2.88;1.20;;;20.60;99.90;;;;;;6223931;28;20052;-85
2022/10/21 12:15:50;;;;;;;4.50;1.00;;;20.60;99.90;;;;;;6224330;28;20046;-83
2022/10/21 12:18:56;;;;;;;3.03;0.88;;;20.70;99.90;;;;;;6224137;28;20065;-83
2022/10/21 12:21:58;;;;;;;2.58;1.10;;;20.70;99.90;;;;;;6211679;28;20057;-83
2022/10/21 12:25:08;;;;;;;4.65;0.82;;;20.80;99.90;;;;;;6205621;28;20049;-84
2022/10/21 12:28:18;;;;;;;1.85;0.70;;;20.80;99.90;;;;;;6198830;28;20042;-84
2022/10/21 12:31:31;;;;;;;2.85;0.68;;;20.90;99.90;;;;;;6199979;28;20058;-84
2022/10/21 12:34:34;;;;;;;2.53;0.70;;;20.90;99.90;;;;;;6199330;28;20495;-83
2022/10/21 12:37:45;;;;;;;1.98;0.80;;;20.90;99.90;;;;;;6198166;28;20065;-84
2022/10/21 12:40:48;;;;;;;2.67;0.75;;;20.90;99.90;;;;;;6198880;28;20415;-84
2022/10/21 12:43:53;;;;;;;23.05;11.05;;;20.90;99.90;;;;;;6198694;28;20047;-84
2022/10/21 12:47:00;;;;;;;6.40;1.48;;;20.90;99.90;;;;;;6199542;28;20050;-87
2022/10/21 12:50:24;;;;;;;15.80;7.28;;;20.90;99.90;;;;;;6198118;28;20058;-83
2022/10/21 12:53:35;;;;;;;2.95;0.65;;;20.90;99.90;;;;;;6206177;28;20054;-84
2022/10/21 12:56:43;;;;;;;1.40;0.60;;;21.00;99.90;;;;;;6198267;28;20693;-84
2022/10/21 12:59:45;;;;;;;5.75;0.52;;;21.10;99.90;;;;;;6198073;28;20054;-84
2022/10/21 13:02:57;;;;;;;5.88;0.90;;;21.20;99.90;;;;;;6199201;28;20050;-84
2022/10/21 13:06:05;;;;;;;1.70;0.57;;;21.10;99.90;;;;;;6198014;28;20042;-84
2022/10/21 13:09:31;;;;;;;6.30;0.80;;;21.20;99.90;;;;;;6197642;28;20053;-83
2022/10/21 13:12:33;;;;;;;2.78;0.60;;;21.20;99.90;;;;;;6198401;28;20396;-84
2022/10/21 13:15:47;;;;;;;4.22;1.63;;;21.30;99.90;;;;;;6198403;28;20054;-84
2022/10/21 13:18:57;;;;;;;3.13;0.95;;;21.30;99.90;;;;;;6198514;28;20053;-84
2022/10/21 13:22:12;;;;;;;1.60;0.47;;;21.40;99.90;;;;;;6206656;28;20046;-84
2022/10/21 13:25:21;;;;;;;2.92;0.93;;;21.40;99.90;;;;;;6211222;28;20049;-84
2022/10/21 13:28:24;;;;;;;2.60;0.65;;;21.30;99.90;;;;;;6197779;28;20057;-84
2022/10/21 13:31:26;;;;;;;0.95;0.30;;;21.40;99.90;;;;;;6198681;28;20069;-84
2022/10/21 13:34:29;;;;;;;3.65;0.65;;;21.50;99.90;;;;;;6198640;28;20046;-85
2022/10/21 13:37:35;;;;;;;1.05;0.30;;;21.60;99.90;;;;;;6198545;28;20046;-84
2022/10/21 13:40:44;;;;;;;1.17;0.73;;;21.60;99.90;;;;;;6198417;28;20046;-84
2022/10/21 13:43:50;;;;;;;3.25;0.68;;;21.50;99.90;;;;;;6200792;28;20050;-84
2022/10/21 13:46:52;;;;;;;2.03;0.30;;;21.50;99.90;;;;;;6198841;28;20050;-84
2022/10/21 13:49:56;;;;;;;1.58;0.30;;;21.40;99.90;;;;;;6198407;28;20076;-84
2022/10/21 13:53:01;;;;;;;5.82;0.40;;;21.40;99.90;;;;;;6208107;28;20046;-83
2022/10/21 13:56:05;;;;;;;2.33;0.50;;;21.40;99.90;;;;;;6227321;28;20510;-84
2022/10/21 13:59:21;;;;;;;0.75;0.20;;;21.40;99.90;;;;;;6229258;28;20164;-84
2022/10/21 14:02:27;;;;;;;1.50;0.50;;;21.40;99.90;;;;;;6228127;28;20347;-85
2022/10/21 14:05:35;;;;;;;4.10;0.82;;;21.30;99.90;;;;;;6227378;28;20061;-85
2022/10/21 14:08:43;;;;;;;1.65;0.57;;;21.30;99.90;;;;;;6230407;28;20072;-83
2022/10/21 14:11:48;;;;;;;1.15;0.40;;;21.10;99.90;;;;;;6231217;28;20050;-83
2022/10/21 14:14:52;;;;;;;1.20;0.40;;;21.10;99.90;;;;;;6232700;28;20046;-84
2022/10/21 14:17:58;;;;;;;1.35;0.32;;;21.00;99.90;;;;;;6226849;28;20448;-84
2022/10/21 14:21:00;;;;;;;0.70;0.38;;;20.90;99.90;;;;;;6226597;28;20054;-83
2022/10/21 14:24:04;;;;;;;1.73;0.57;;;20.80;99.90;;;;;;6221631;28;20046;-83
2022/10/21 14:27:07;;;;;;;3.55;0.40;;;20.70;99.90;;;;;;6208345;28;20054;-83
2022/10/21 14:30:17;;;;;;;7.30;0.43;;;20.60;99.90;;;;;;6206782;28;20049;-84
2022/10/21 14:33:24;;;;;;;1.52;0.43;;;20.60;99.90;;;;;;6208876;28;20050;-84
2022/10/21 14:36:27;;;;;;;7.60;0.93;;;20.50;99.90;;;;;;6223603;28;20050;-84
2022/10/21 14:39:31;;;;;;;3.00;0.25;;;20.50;99.90;;;;;;6229297;28;20483;-84
2022/10/21 14:42:33;;;;;;;1.15;0.20;;;20.40;99.90;;;;;;6228764;28;20065;-84
2022/10/21 14:45:37;;;;;;;1.27;0.28;;;20.40;99.90;;;;;;6230896;28;20049;-84
2022/10/21 14:48:44;;;;;;;1.75;0.40;;;20.30;99.90;;;;;;6232119;28;20057;-85
2022/10/21 14:51:46;;;;;;;1.57;0.20;;;20.20;99.90;;;;;;6230220;28;20056;-84
2022/10/21 14:54:54;;;;;;;3.22;0.40;;;20.20;99.90;;;;;;6225252;28;20050;-83
2022/10/21 14:57:59;;;;;;;;;;;20.10;99.90;;;;;;6231833;28;20069;-83
2022/10/21 15:01:06;;;;;;;4.57;0.30;;;20.10;99.90;;;;;;6225435;28;19921;-83
2022/10/21 15:04:40;;;;;;;5.53;0.50;;;20.10;99.90;;;;;;6229101;28;20052;-84
2022/10/21 15:07:41;;;;;;;4.00;1.38;;;20.00;99.90;;;;;;6228503;28;20053;-83
2022/10/21 15:10:45;;;;;;;3.22;0.43;;;20.00;99.90;;;;;;6231338;28;20058;-83
2022/10/21 15:14:22;;;;;;;1.55;0.20;;;19.90;99.90;;;;;;6234895;28;20053;-83
2022/10/21 15:17:24;;;;;;;2.08;0.38;;;19.90;99.90;;;;;;6230043;28;20581;-83
2022/10/21 15:20:29;;;;;;;3.38;0.60;;;19.80;99.90;;;;;;6216267;28;20046;-83
2022/10/21 15:23:34;;;;;;;1.40;0.40;;;19.80;99.90;;;;;;6218863;28;20056;-83
2022/10/21 15:26:40;;;;;;;5.55;0.47;;;19.70;99.90;;;;;;6213029;28;20057;-83
2022/10/21 15:29:44;;;;;;;3.05;0.30;;;19.70;99.90;;;;;;6208866;28;20427;-83
2022/10/21 15:32:46;;;;;;;1.15;0.45;;;19.60;99.90;;;;;;6213248;28;20050;-84
2022/10/21 15:35:59;;;;;;;2.30;0.50;;;19.60;99.90;;;;;;6204336;28;20046;-84
2022/10/21 15:39:01;;;;;;;1.10;0.40;;;19.50;99.90;;;;;;6203499;28;20059;-83
2022/10/21 15:42:05;;;;;;;0.70;0.40;;;19.50;99.90;;;;;;6201463;28;20053;-84
2022/10/21 15:45:14;;;;;;;2.80;0.50;;;19.40;99.90;;;;;;6200287;28;20434;-83
2022/10/21 15:48:16;;;;;;;2.63;0.40;;;19.50;99.90;;;;;;6200884;28;20046;-83
2022/10/21 15:51:17;;;;;;;4.10;1.15;;;19.40;99.90;;;;;;6205703;28;20104;-83
2022/10/21 15:54:20;;;;;;;2.88;0.30;;;19.40;99.90;;;;;;6226797;28;20050;-84
2022/10/21 15:57:23;;;;;;;3.47;0.73;;;19.30;99.90;;;;;;6227208;28;20042;-83
2022/10/21 16:00:25;;;;;;;7.07;0.50;;;19.20;99.90;;;;;;6224131;28;20503;-84
2022/10/21 16:03:27;;;;;;;1.63;0.45;;;19.10;99.90;;;;;;6224431;28;20076;-84
2022/10/21 16:06:29;;;;;;;2.03;0.32;;;18.90;99.90;;;;;;6224635;28;20046;-85